Corpus Christi, TX (78401)

7:07 PM CDT on March 25, 2017 (GMT -0500)
Aransas Cliffs | | Change Station

Elev 22 ft 27.75 °N, 97.38 °W | Updated 46 seconds ago

Clear
Clear
76.1 °F
Feels Like 77 °F
N
6.7
Wind Variable Wind from ESE
Gusts 10.4 mph

Today
High -- | Low -- °F
--% Chance of Precip.
Yesterday
High -- | Low -- °F
Precip. -- in
Pressure 29.90 in
Visibility 10.0 miles
Clouds Few 3500 ft
Few 4000 ft
Few 7000 ft
Heat Index 77 °F
Dew Point 69 °F
Humidity 78%
Rainfall 0.00 in
Snow Depth Not available.
7:27 AM 7:43 PM
Waning Crescent, 6% visible
METAR KCRP 252351Z 13013KT 10SM FEW035 FEW040 FEW070 26/21 A2990 RMK AO2 WSHFT 2300 SLP125 T02610211 10294 20250 55013
Pressure 29.90 in
Visibility 10.0 miles
Clouds Few 3500 ft
Few 4000 ft
Few 7000 ft
Heat Index 77 °F
Dew Point 69 °F
Humidity 78%
Rainfall 0.00 in
Snow Depth Not available.
7:27 AM 7:43 PM
Waning Crescent, 6% visible
METAR KCRP 252351Z 13013KT 10SM FEW035 FEW040 FEW070 26/21 A2990 RMK AO2 WSHFT 2300 SLP125 T02610211 10294 20250 55013

Get Severe Weather Alerts

Thanks for signing up!

Be on the lookout for a verification email in your inbox.

You'll start receiving the daily forecast at 8 AM.

×

10-Day Weather Forecast

Almanac

Astronomy

Mar. 25, 2017 Rise Set
Actual Time
Civil Twilight
Nautical Twilight
Astronomical Twilight
Moon
Length of Visible Light
Length of Day
Tomorrow will be .
, % of the Moon is Illuminated

Today's Extremes

State Highs State Lows

Community

WunderPhotos

Upload Photos

1,962,540 photos uploaded!

WunderBlog® & News

Nearby

Air Quality

  Air Quality AQ Index Pollutant
Not available.

Snow Depth

Station Depth Elevation

Earthquake Activity

City Distance Mag. Time & Date
Minimum magnitude displayed is 2.5.

Earthquake Activity

City Distance Mag. Time & Date
Minimum magnitude displayed is 2.5.

Coastal Water Temperatures

Place Temperature

Stations

Nearby Weather Stations

Station Location Temp. Windchill Dew Point Humidity Wind Precip. Elev Updated Type
                   

Watches & Warnings

There are currently no watches in effect.